createdAt,value
2023-03-26T00:03:20.233Z,94108.00
2023-03-26T00:07:20.187Z,94104.00
2023-03-26T00:11:20.171Z,94102.00
2023-03-26T00:15:20.137Z,94102.00
2023-03-26T00:19:20.094Z,94102.00
2023-03-26T00:23:20.057Z,94100.00
2023-03-26T00:27:20.005Z,94096.00
2023-03-26T00:31:20.034Z,94098.00
2023-03-26T00:35:19.961Z,94088.00
2023-03-26T00:39:19.941Z,94086.00
2023-03-26T00:43:19.883Z,94084.00
2023-03-26T00:47:19.859Z,94092.00
2023-03-26T00:51:19.837Z,94088.00
2023-03-26T00:55:19.796Z,94078.00
2023-03-26T00:59:19.747Z,94065.00
2023-03-26T01:03:27.558Z,94059.00
2023-03-26T01:07:20.675Z,94055.00
2023-03-26T01:11:19.669Z,94053.00
2023-03-26T01:15:19.609Z,94057.00
2023-03-26T01:19:19.590Z,94069.00
2023-03-26T01:23:19.649Z,94065.00
2023-03-26T01:27:19.884Z,94061.00
2023-03-26T01:31:20.078Z,94049.00
2023-03-26T01:35:20.206Z,94045.00
2023-03-26T01:39:20.244Z,94039.00
2023-03-26T01:43:20.256Z,94037.00
2023-03-26T01:47:20.392Z,94039.00
2023-03-26T01:51:20.429Z,94041.00
2023-03-26T01:55:20.456Z,94035.00
2023-03-26T01:59:20.526Z,94041.00
2023-03-26T02:03:20.800Z,94049.00
2023-03-26T02:07:20.894Z,94051.00
2023-03-26T02:11:21.587Z,94053.00
2023-03-26T02:15:21.139Z,94051.00
2023-03-26T02:19:21.418Z,94047.00
2023-03-26T02:23:21.570Z,94047.00
2023-03-26T02:27:21.740Z,94043.00
2023-03-26T02:31:21.931Z,94035.00
2023-03-26T02:35:22.070Z,94031.00
2023-03-26T02:39:21.899Z,94039.00
2023-03-26T02:43:21.959Z,94033.00
2023-03-26T02:47:22.096Z,94039.00
2023-03-26T02:51:22.075Z,94037.00
2023-03-26T02:55:22.158Z,94024.00
2023-03-26T02:59:22.234Z,94018.00
2023-03-26T03:03:22.354Z,94020.00
2023-03-26T03:07:22.497Z,94014.00
2023-03-26T03:11:22.605Z,94004.00
2023-03-26T03:15:22.819Z,93996.00
2023-03-26T03:19:23.012Z,93996.00
2023-03-26T03:23:23.183Z,93988.00
2023-03-26T03:27:23.340Z,93977.00
2023-03-26T03:31:23.597Z,93977.00
2023-03-26T03:35:23.703Z,93971.00
2023-03-26T03:39:23.779Z,93977.00
2023-03-26T03:43:23.987Z,93977.00
2023-03-26T03:47:24.229Z,93969.00
2023-03-26T03:51:24.305Z,93971.00
2023-03-26T03:55:24.539Z,93961.00
2023-03-26T03:59:24.691Z,93969.00
2023-03-26T04:03:33.335Z,93965.00
2023-03-26T04:07:25.899Z,93959.00
2023-03-26T04:13:34.440Z,93957.00
2023-03-26T04:17:34.431Z,93955.00
2023-03-26T04:21:34.343Z,93955.00
2023-03-26T04:25:34.324Z,93947.00
2023-03-26T04:29:34.320Z,93945.00
2023-03-26T04:33:34.275Z,93935.00
2023-03-26T04:37:34.214Z,93935.00
2023-03-26T04:41:34.182Z,93929.00
2023-03-26T04:45:34.139Z,93918.00
2023-03-26T04:49:34.118Z,93910.00
2023-03-26T04:53:34.100Z,93902.00
2023-03-26T04:57:34.203Z,93896.00
2023-03-26T05:01:34.343Z,93890.00
2023-03-26T05:05:34.389Z,93894.00
2023-03-26T05:09:34.610Z,93896.00
2023-03-26T05:13:34.718Z,93906.00
2023-03-26T05:17:34.887Z,93912.00
2023-03-26T05:21:34.754Z,93906.00
2023-03-26T05:25:34.785Z,93906.00
2023-03-26T05:29:35.009Z,93896.00
2023-03-26T05:33:35.225Z,93894.00
2023-03-26T05:37:35.430Z,93894.00
2023-03-26T05:41:35.602Z,93882.00
2023-03-26T05:45:35.697Z,93865.00
2023-03-26T05:49:35.723Z,93857.00
2023-03-26T05:53:35.794Z,93849.00
2023-03-26T05:57:35.859Z,93845.00
2023-03-26T06:01:35.827Z,93855.00
2023-03-26T06:05:35.882Z,93853.00
2023-03-26T06:09:35.924Z,93847.00
2023-03-26T06:13:35.895Z,93849.00
2023-03-26T06:17:36.096Z,93847.00
2023-03-26T06:21:36.245Z,93840.00
2023-03-26T06:25:36.318Z,93843.00
2023-03-26T06:29:36.356Z,93842.00
2023-03-26T06:33:36.457Z,93836.00
2023-03-26T06:37:36.536Z,93836.00
2023-03-26T06:41:36.692Z,93830.00
2023-03-26T06:45:36.661Z,93808.00
2023-03-26T06:49:36.631Z,93804.00
2023-03-26T06:53:36.571Z,93796.00
2023-03-26T06:57:36.534Z,93788.00
2023-03-26T07:01:36.583Z,93771.00
2023-03-26T07:05:36.481Z,93759.00
2023-03-26T07:09:36.451Z,93751.00
2023-03-26T07:13:36.420Z,93747.00
2023-03-26T07:17:36.365Z,93740.00
2023-03-26T07:21:36.329Z,93740.00
2023-03-26T07:25:36.320Z,93753.00
2023-03-26T07:29:36.288Z,93757.00
2023-03-26T07:33:36.229Z,93753.00
2023-03-26T07:37:36.212Z,93747.00
2023-03-26T07:41:36.168Z,93732.00
2023-03-26T07:45:36.205Z,93714.00
2023-03-26T07:49:36.224Z,93691.00
2023-03-26T07:53:36.433Z,93677.00
2023-03-26T07:57:36.526Z,93655.00
2023-03-26T08:01:36.537Z,93636.00
2023-03-26T08:05:36.672Z,93624.00
2023-03-26T08:09:36.778Z,93620.00
2023-03-26T08:13:36.753Z,93616.00
2023-03-26T08:17:36.725Z,93616.00
2023-03-26T08:21:36.699Z,93595.00
2023-03-26T08:25:37.971Z,93585.00
2023-03-26T08:29:36.621Z,93569.00
2023-03-26T08:33:38.407Z,93573.00
2023-03-26T08:37:36.521Z,93565.00
2023-03-26T08:41:36.496Z,93559.00
2023-03-26T08:45:36.478Z,93559.00
2023-03-26T08:49:36.680Z,93554.00
2023-03-26T08:53:36.811Z,93554.00
2023-03-26T08:57:36.830Z,93550.00
2023-03-26T09:01:36.937Z,93550.00
2023-03-26T09:05:37.064Z,93559.00
2023-03-26T09:09:37.129Z,93565.00
2023-03-26T09:13:37.074Z,93573.00
2023-03-26T09:17:37.050Z,93573.00
2023-03-26T09:21:37.021Z,93569.00
2023-03-26T09:25:36.956Z,93563.00
2023-03-26T09:29:36.988Z,93554.00
2023-03-26T09:33:36.912Z,93548.00
2023-03-26T09:37:36.852Z,93532.00
2023-03-26T09:41:37.845Z,93528.00
2023-03-26T09:45:36.803Z,93508.00
2023-03-26T09:49:36.864Z,93495.00
2023-03-26T09:53:37.047Z,93485.00
2023-03-26T09:57:37.085Z,93481.00
2023-03-26T10:01:37.452Z,93473.00
2023-03-26T10:05:37.335Z,93467.00
2023-03-26T10:09:37.231Z,93465.00
2023-03-26T10:13:37.155Z,93463.00
2023-03-26T10:17:37.172Z,93465.00
2023-03-26T10:21:37.081Z,93465.00
2023-03-26T10:25:37.050Z,93467.00
2023-03-26T10:29:37.038Z,93471.00
2023-03-26T10:33:36.990Z,93477.00
2023-03-26T10:37:36.953Z,93475.00
2023-03-26T10:41:36.897Z,93465.00
2023-03-26T10:45:36.870Z,93463.00
2023-03-26T10:49:36.829Z,93461.00
2023-03-26T10:53:36.789Z,93459.00
2023-03-26T10:57:36.775Z,93459.00
2023-03-26T11:01:36.790Z,93453.00
2023-03-26T11:05:36.842Z,93453.00
2023-03-26T11:09:36.739Z,93452.00
2023-03-26T11:13:36.736Z,93444.00
2023-03-26T11:17:40.033Z,93440.00
2023-03-26T11:21:36.732Z,93448.00
2023-03-26T11:25:36.687Z,93452.00
2023-03-26T11:29:36.664Z,93457.00
2023-03-26T11:33:36.625Z,93440.00
2023-03-26T11:37:36.604Z,93432.00
2023-03-26T11:41:36.558Z,93434.00
2023-03-26T11:45:36.521Z,93432.00
2023-03-26T11:49:36.474Z,93428.00
2023-03-26T11:53:36.441Z,93424.00
2023-03-26T11:57:36.433Z,93420.00
2023-03-26T12:01:36.400Z,93408.00
2023-03-26T12:05:36.340Z,93405.00
2023-03-26T12:09:36.464Z,93395.00
2023-03-26T12:13:36.533Z,93387.00
2023-03-26T12:17:36.502Z,93381.00
2023-03-26T12:21:36.704Z,93387.00
2023-03-26T12:25:36.914Z,93389.00
2023-03-26T12:29:36.867Z,93395.00
2023-03-26T12:33:36.871Z,93410.00
2023-03-26T12:37:36.847Z,93420.00
2023-03-26T12:44:42.209Z,93410.00
2023-03-26T12:45:37.793Z,93430.00
2023-03-26T12:49:36.699Z,93438.00
2023-03-26T12:53:36.649Z,93438.00
2023-03-26T12:57:36.778Z,93422.00
2023-03-26T13:01:36.983Z,93428.00
2023-03-26T13:05:37.063Z,93426.00
2023-03-26T13:09:37.200Z,93424.00
2023-03-26T13:13:37.444Z,93416.00
2023-03-26T13:17:37.642Z,93408.00
2023-03-26T13:21:37.690Z,93408.00
2023-03-26T13:25:37.856Z,93403.00
2023-03-26T13:29:37.949Z,93406.00
2023-03-26T13:33:38.085Z,93405.00
2023-03-26T13:37:38.273Z,93397.00
2023-03-26T13:41:38.399Z,93399.00
2023-03-26T13:45:38.601Z,93401.00
2023-03-26T13:49:38.718Z,93393.00
2023-03-26T13:53:38.909Z,93389.00
2023-03-26T13:57:39.051Z,93389.00
2023-03-26T14:01:39.257Z,93387.00
2023-03-26T14:05:39.437Z,93395.00
2023-03-26T14:09:39.607Z,93405.00
2023-03-26T14:13:39.770Z,93406.00
2023-03-26T14:17:39.988Z,93406.00
2023-03-26T14:21:40.192Z,93406.00
2023-03-26T14:25:40.399Z,93401.00
2023-03-26T14:29:40.598Z,93401.00
2023-03-26T14:33:41.557Z,93389.00
2023-03-26T14:37:40.543Z,93383.00
2023-03-26T14:41:40.458Z,93371.00
2023-03-26T14:45:40.668Z,93363.00
2023-03-26T14:49:40.646Z,93377.00
2023-03-26T14:53:40.643Z,93385.00
2023-03-26T14:57:40.564Z,93395.00
2023-03-26T15:01:40.582Z,93391.00
2023-03-26T15:05:40.501Z,93385.00
2023-03-26T15:09:40.470Z,93393.00
2023-03-26T15:13:40.409Z,93391.00
2023-03-26T15:17:40.441Z,93393.00
2023-03-26T15:21:40.355Z,93385.00
2023-03-26T15:25:40.325Z,93387.00
2023-03-26T15:29:40.289Z,93373.00
2023-03-26T15:33:40.241Z,93361.00
2023-03-26T15:37:40.429Z,93326.00
2023-03-26T15:41:40.589Z,93340.00
2023-03-26T15:45:40.639Z,93342.00
2023-03-26T15:49:40.654Z,93326.00
2023-03-26T15:53:40.537Z,93322.00
2023-03-26T15:57:40.521Z,93322.00
2023-03-26T16:01:40.521Z,93316.00
2023-03-26T16:05:40.415Z,93320.00
2023-03-26T16:09:40.395Z,93313.00
2023-03-26T16:13:40.340Z,93305.00
2023-03-26T16:17:40.356Z,93311.00
2023-03-26T16:21:40.279Z,93307.00
2023-03-26T16:25:40.280Z,93303.00
2023-03-26T16:29:40.206Z,93293.00
2023-03-26T16:33:40.181Z,93279.00
2023-03-26T16:37:40.164Z,93279.00
2023-03-26T16:41:40.121Z,93273.00
2023-03-26T16:45:40.115Z,93266.00
2023-03-26T16:49:40.009Z,93256.00
2023-03-26T16:53:39.999Z,93250.00
2023-03-26T16:57:39.979Z,93254.00
2023-03-26T17:01:39.958Z,93264.00
2023-03-26T17:05:40.023Z,93260.00
2023-03-26T17:09:40.073Z,93258.00
2023-03-26T17:13:40.171Z,93260.00
2023-03-26T17:17:40.273Z,93260.00
2023-03-26T17:21:45.910Z,93277.00
2023-03-26T17:25:41.313Z,93266.00
2023-03-26T17:29:40.276Z,93266.00
2023-03-26T17:33:40.228Z,93297.00
2023-03-26T17:37:40.198Z,93295.00
2023-03-26T17:41:40.374Z,93297.00
2023-03-26T17:45:40.530Z,93295.00
2023-03-26T17:49:40.598Z,93301.00
2023-03-26T17:53:40.677Z,93324.00
2023-03-26T17:57:40.773Z,93332.00
2023-03-26T18:01:40.899Z,93342.00
2023-03-26T18:05:40.993Z,93346.00
2023-03-26T18:09:41.121Z,93334.00
2023-03-26T18:13:41.259Z,93326.00
2023-03-26T18:17:41.429Z,93320.00
2023-03-26T18:21:41.496Z,93311.00
2023-03-26T18:25:41.509Z,93287.00
2023-03-26T18:29:41.594Z,93297.00
2023-03-26T18:33:41.724Z,93307.00
2023-03-26T18:37:41.872Z,93305.00
2023-03-26T18:41:42.037Z,93291.00
2023-03-26T18:45:42.093Z,93289.00
2023-03-26T18:49:42.199Z,93277.00
2023-03-26T18:53:42.366Z,93271.00
2023-03-26T18:57:42.506Z,93277.00
2023-03-26T19:01:45.457Z,93283.00
2023-03-26T19:05:42.575Z,93293.00
2023-03-26T19:09:42.564Z,93305.00
2023-03-26T19:13:42.501Z,93313.00
2023-03-26T19:17:42.586Z,93305.00
2023-03-26T19:21:42.423Z,93326.00
2023-03-26T19:25:42.516Z,93326.00
2023-03-26T19:29:42.583Z,93330.00
2023-03-26T19:33:42.623Z,93330.00
2023-03-26T19:37:42.745Z,93334.00
2023-03-26T19:41:42.872Z,93336.00
2023-03-26T19:46:00.041Z,93324.00
2023-03-26T19:49:43.961Z,93324.00
2023-03-26T19:53:42.947Z,93313.00
2023-03-26T19:57:42.871Z,93309.00
2023-03-26T20:01:43.020Z,93301.00
2023-03-26T20:05:42.824Z,93309.00
2023-03-26T20:09:42.792Z,93307.00
2023-03-26T20:13:42.863Z,93309.00
2023-03-26T20:17:43.106Z,93305.00
2023-03-26T20:21:43.172Z,93309.00
2023-03-26T20:25:43.198Z,93314.00
2023-03-26T20:29:43.329Z,93316.00
2023-03-26T20:33:43.317Z,93309.00
2023-03-26T20:37:43.402Z,93309.00
2023-03-26T20:41:43.406Z,93314.00
2023-03-26T20:45:43.528Z,93309.00
2023-03-26T20:49:43.612Z,93309.00
2023-03-26T20:53:43.663Z,93309.00
2023-03-26T20:57:43.711Z,93305.00
2023-03-26T21:01:43.851Z,93305.00
2023-03-26T21:05:44.026Z,93309.00
2023-03-26T21:09:44.088Z,93313.00
2023-03-26T21:13:44.034Z,93314.00
2023-03-26T21:17:44.124Z,93316.00
2023-03-26T21:21:44.124Z,93316.00
2023-03-26T21:25:44.218Z,93313.00
2023-03-26T21:29:44.415Z,93309.00
2023-03-26T21:33:44.531Z,93305.00
2023-03-26T21:37:44.545Z,93299.00
2023-03-26T21:41:44.535Z,93297.00
2023-03-26T21:45:44.581Z,93289.00
2023-03-26T21:49:44.571Z,93293.00
2023-03-26T21:53:44.799Z,93293.00
2023-03-26T21:57:44.815Z,93297.00
2023-03-26T22:01:45.098Z,93297.00
2023-03-26T22:05:44.796Z,93297.00
2023-03-26T22:09:44.848Z,93301.00
2023-03-26T22:13:44.849Z,93305.00
2023-03-26T22:17:44.881Z,93297.00
2023-03-26T22:21:44.867Z,93283.00
2023-03-26T22:25:44.903Z,93287.00
2023-03-26T22:29:44.935Z,93289.00
2023-03-26T22:33:45.065Z,93289.00
2023-03-26T22:37:45.177Z,93283.00
2023-03-26T22:41:45.340Z,93279.00
2023-03-26T22:45:45.480Z,93277.00
2023-03-26T22:49:45.571Z,93277.00
2023-03-26T22:53:45.687Z,93275.00
2023-03-26T22:57:45.801Z,93269.00
2023-03-26T23:01:45.995Z,93269.00
2023-03-26T23:05:45.974Z,93266.00
2023-03-26T23:09:46.146Z,93262.00
2023-03-26T23:13:46.142Z,93264.00
2023-03-26T23:17:46.268Z,93267.00
2023-03-26T23:21:47.190Z,93267.00
2023-03-26T23:25:46.133Z,93264.00
2023-03-26T23:29:46.226Z,93262.00
2023-03-26T23:33:46.695Z,93262.00
2023-03-26T23:37:46.302Z,93254.00
2023-03-26T23:41:46.328Z,93250.00
2023-03-26T23:45:46.301Z,93244.00
2023-03-26T23:49:46.441Z,93246.00
2023-03-26T23:53:46.422Z,93248.00
2023-03-26T23:57:46.405Z,93246.00
